Airfield :







YOU CAN JOIN US ON...

 
LOGIN :

Register | Disclaimer

   EN    FR    IT 

 









Legend :    VFR   Marginal VFR   IFR   Intensive IFR   Very Intensive IFR
Visi :
Ceiling :
>= 8 km
>= 3000ft
5 to 8 km
1000 to 3000 ft
1500m to 5 km
500 to 1000 ft
800 to 1500m
200 to 500 ft
< 800m
< 200 ft
Symbols :   Thunderstorms  Fog  Heavy snow  Heavy precipitations  Wind > 20 kt






- Airport Elevation : 1005 ft
- IATA code : YAH


CYAH - La Grande-4

CURRENT METAR :
  • 281200Z AUTO 05007KT 9SM CLR M17/M21 A2999 RMK SLP187

EXPIRED METARs :
  • 281100Z AUTO VRB02KT 9SM CLR M20/M23 A3000 RMK SLP192
  • 281000Z AUTO VRB03KT 9SM CLR M22/M25 A3001 RMK SLP196

TAF TAF CYAH
Valid from the 28 at 11:00 until the 28 at 21:00 UTC


281038Z 2811/2821 VRB03KT P6SM SKC
FM281400 12008KT P6SM BKN100
FM281600 15010G20KT 6SM -SN OVC025
TEMPO 2816/2818 21/2SM -SN OVC020
FM281800 19008G18KT 11/2SM -SN OVC020
PROB30 2818/2821 3/4SM -SN BLSN OVC005 RMK FCST BASED ON AUTO OBS. NXT FCST BY 281800Z



MET'MAP, your aeronautical weather chart ! - Copyright ORBIFLY December 2007 - Disclaimer

ORBIFLY MET'MAP TEAM :

Programming & Development : Alexandra Zaïnal
Concept & original design : Baudouin d'Aumeries
Assistance for programming : Marc-Olivier Méhu
Technical & hardware support : Manuel Goepfert

Contact : metmap@orbifly.com




SOURCES & CREDITS :

   NOAA